Impacts METAR Board
IDs:

KPHX - Phoenix/Sky Harbor, AZ, US

Updated at: 1500 UTC 03 Dec 2021
Potential Impact None Slight Moderate High
Time 03/03Z 03/04Z 03/05Z 03/06Z 03/07Z 03/08Z 03/09Z 03/10Z 03/11Z 03/12Z 03/13Z 03/14Z 03/15Z
Temp71 71 67 66 64 61 59 59 58 58 56 56 56
Dewpt34 34 35 36 37 38 35 36 36 36 36 36 36
Altim29.99 30.00 30.00 30.01 30.02 30.01 30.01 30.01 30.02 30.02 30.02 30.04 30.04
VIS10 10 10 10 10 10 10 10 10 10 10 10 10
CIG-- -- -- -- -- -- -- -- -- -- -- -- --
CoverFEWFEWCLRCLRCLRFEWCLRFEWFEWFEWCLRFEWFEW
FltCatVFRVFRVFRVFRVFRVFRVFRVFRVFRVFRVFRVFRVFR
WX--------------------------
WDir210000080110110080100110100
WSpd3 0 0 0 0 4 5 3 0 4 3 5 6
WGst-- -- -- -- -- -- -- -- -- -- -- -- --
Raw hourly METARs
KPHX 030251Z 21003KT 10SM FEW100 22/01 A2999 RMK AO2 SLP144 T02170011 53007
KPHX 030351Z 00000KT 10SM FEW100 22/01 A3000 RMK AO2 SLP147 T02170011
KPHX 030451Z 00000KT 10SM CLR 19/02 A3000 RMK AO2 SLP148 T01940017
KPHX 030551Z 00000KT 10SM CLR 19/02 A3001 RMK AO2 SLP150 T01890022 10278 20178 53008
KPHX 030651Z 00000KT 10SM CLR 18/03 A3002 RMK AO2 SLP151 T01780028 402890139
KPHX 030751Z 08004KT 10SM FEW250 16/03 A3001 RMK AO2 SLP149 T01610033
KPHX 030851Z 11005KT 10SM CLR 15/02 A3001 RMK AO2 SLP149 T01500017 58002
KPHX 030951Z 11003KT 10SM FEW100 15/02 A3001 RMK AO2 SLP150 T01500022
KPHX 031051Z 00000KT 10SM FEW100 14/02 A3002 RMK AO2 SLP151 T01440022
KPHX 031151Z 08004KT 10SM FEW130 14/02 A3002 RMK AO2 SLP152 T01440022 10200 20139 51003
KPHX 031251Z 10003KT 10SM CLR 13/02 A3002 RMK AO2 SLP154 T01330022
KPHX 031351Z 11005KT 10SM FEW130 13/02 A3004 RMK AO2 SLP162 T01330022
KPHX 031451Z 10006KT 10SM FEW130 13/02 A3004 RMK AO2 SLP164 T01330022 53009



Page loaded:  15:53 UTC  |   07:53 AM Pacific  |   08:53 AM Mountain  |   09:53 AM Central  |   10:53 AM Eastern

 

ADVISORIES

FORECASTS

FORECASTS

OBSERVATIONS

USER TOOLS

ABOUT US